Time;durP1;ratioP1;P1;durP2;ratioP2;P2;SDS_P1;SDS_P2;PMS_P1;PMS_P2;Temp;Humidity;BMP_temperature;BMP_pressure;BME280_temperature;BME280_humidity;BME280_pressure;Samples;Min_cycle;Max_cycle;Signal;HPM_P1;HPM_P2
2023/03/09 06:02:30;;;;;;;6.82;2.30;;;9.80;97.20;;;;;;1720985;28;20180;-68
2023/03/09 06:03:21;;;;;;;10.20;2.10;;;9.90;97.20;;;;;;1721436;28;20431;-67
2023/03/09 06:04:12;;;;;;;6.13;2.17;;;9.90;97.20;;;;;;1714863;28;20232;-67
2023/03/09 06:05:04;;;;;;;5.28;1.77;;;9.90;97.20;;;;;;1715875;28;20202;-68
2023/03/09 06:06:00;;;;;;;4.25;1.80;;;9.90;97.20;;;;;;1718440;28;20681;-67
2023/03/09 06:06:51;;;;;;;6.10;1.88;;;9.90;97.20;;;;;;1721538;28;20232;-68
2023/03/09 06:07:43;;;;;;;4.93;1.70;;;9.90;97.20;;;;;;1719049;28;20211;-68
2023/03/09 06:08:34;;;;;;;6.20;2.17;;;9.90;97.20;;;;;;1719838;28;20675;-68
2023/03/09 06:09:26;;;;;;;8.37;1.90;;;9.90;97.20;;;;;;1718226;28;20569;-68
2023/03/09 06:10:17;;;;;;;7.32;1.88;;;9.80;97.20;;;;;;1718692;28;20259;-67
2023/03/09 06:11:09;;;;;;;8.13;1.90;;;9.80;97.20;;;;;;1716398;28;20224;-68
2023/03/09 06:12:00;;;;;;;5.88;2.10;;;9.80;97.20;;;;;;1716947;28;20205;-67
2023/03/09 06:12:53;;;;;;;4.23;1.93;;;9.80;97.20;;;;;;1716845;28;20208;-68
2023/03/09 06:13:43;;;;;;;8.07;2.58;;;9.80;97.20;;;;;;1715776;28;20198;-68
2023/03/09 06:14:35;;;;;;;10.20;2.37;;;9.70;97.20;;;;;;1716844;28;20296;-67
2023/03/09 06:15:26;;;;;;;6.80;2.30;;;9.70;97.20;;;;;;1716897;28;20578;-67
2023/03/09 06:16:17;;;;;;;3.63;2.10;;;9.70;97.20;;;;;;1716202;28;20565;-67
2023/03/09 06:17:08;;;;;;;10.00;2.63;;;9.70;97.20;;;;;;1716304;28;20569;-67
2023/03/09 06:18:01;;;;;;;3.93;2.00;;;9.70;97.20;;;;;;1716866;28;20212;-68
2023/03/09 06:18:54;;;;;;;8.13;1.92;;;9.70;97.20;;;;;;1716686;28;20205;-67
2023/03/09 06:19:46;;;;;;;6.40;2.40;;;9.60;97.20;;;;;;1716629;28;20660;-68
2023/03/09 06:20:37;;;;;;;7.10;2.78;;;9.70;97.20;;;;;;1718253;28;20229;-67
2023/03/09 06:21:28;;;;;;;9.05;2.53;;;9.70;97.20;;;;;;1718270;28;20202;-67
2023/03/09 06:22:19;;;;;;;9.93;2.97;;;9.70;97.20;;;;;;1718321;28;20205;-68
2023/03/09 06:23:11;;;;;;;11.93;3.17;;;9.70;97.20;;;;;;1719555;28;20198;-68
2023/03/09 06:24:02;;;;;;;7.85;2.70;;;9.70;97.20;;;;;;1720913;28;20224;-68
2023/03/09 06:24:54;;;;;;;7.47;2.53;;;9.80;97.20;;;;;;1721346;28;20201;-68
2023/03/09 06:25:44;;;;;;;7.53;2.55;;;9.80;97.20;;;;;;1721140;28;20480;-68
2023/03/09 06:26:36;;;;;;;8.00;2.92;;;9.90;97.20;;;;;;1721389;28;20201;-66
2023/03/09 06:27:27;;;;;;;6.22;2.65;;;9.90;97.20;;;;;;1721074;28;20299;-67
2023/03/09 06:28:19;;;;;;;4.53;1.70;;;9.90;97.20;;;;;;1720033;28;20193;-66
2023/03/09 06:29:10;;;;;;;4.07;1.67;;;9.90;97.20;;;;;;1720926;28;20193;-66
2023/03/09 06:30:01;;;;;;;10.20;2.10;;;10.00;97.20;;;;;;1721013;28;20193;-66
2023/03/09 06:30:52;;;;;;;5.95;1.65;;;10.00;97.20;;;;;;1720869;28;20237;-66
2023/03/09 06:31:44;;;;;;;4.93;1.77;;;10.00;97.20;;;;;;1721218;28;20204;-66
2023/03/09 06:32:34;;;;;;;6.47;1.85;;;10.00;97.20;;;;;;1721253;28;20273;-67
2023/03/09 06:33:27;;;;;;;4.23;1.63;;;10.00;97.20;;;;;;1721238;28;20292;-66
2023/03/09 06:34:18;;;;;;;6.30;1.90;;;10.00;97.20;;;;;;1721083;28;20224;-66
2023/03/09 06:35:10;;;;;;;9.90;2.60;;;10.10;97.20;;;;;;1721200;28;20662;-67
2023/03/09 06:36:01;;;;;;;4.03;1.52;;;10.00;97.20;;;;;;1721219;28;20451;-66
2023/03/09 06:36:52;;;;;;;5.87;1.70;;;10.10;97.20;;;;;;1721360;28;20212;-66
2023/03/09 06:37:43;;;;;;;6.05;2.30;;;10.10;97.20;;;;;;1721202;28;20209;-66
2023/03/09 06:38:35;;;;;;;3.97;1.70;;;10.10;97.20;;;;;;1721339;28;20211;-67
2023/03/09 06:39:26;;;;;;;5.55;1.80;;;10.10;97.20;;;;;;1721074;28;20455;-66
2023/03/09 06:40:18;;;;;;;3.80;1.60;;;10.10;97.20;;;;;;1720951;28;20193;-66
2023/03/09 06:41:09;;;;;;;3.08;1.70;;;10.10;97.20;;;;;;1720943;28;20205;-67
2023/03/09 06:42:01;;;;;;;9.27;2.40;;;10.10;97.20;;;;;;1721295;28;20201;-66
2023/03/09 06:42:51;;;;;;;5.43;1.85;;;10.10;97.20;;;;;;1721163;28;20233;-66
2023/03/09 06:43:45;;;;;;;7.90;1.80;;;10.10;97.20;;;;;;1721155;28;20679;-66
2023/03/09 06:44:35;;;;;;;4.57;1.75;;;10.10;97.20;;;;;;1721289;28;20314;-66
2023/03/09 06:45:27;;;;;;;7.53;2.20;;;10.10;97.20;;;;;;1721185;28;20293;-66
2023/03/09 06:46:18;;;;;;;8.73;2.42;;;10.10;97.20;;;;;;1721211;28;20205;-68
2023/03/09 06:47:10;;;;;;;7.10;2.20;;;10.10;97.20;;;;;;1721292;28;20197;-66
2023/03/09 06:48:00;;;;;;;11.07;2.67;;;10.20;97.20;;;;;;1721176;28;20201;-66
2023/03/09 06:48:54;;;;;;;5.55;1.40;;;10.20;97.20;;;;;;1721249;28;20208;-67
2023/03/09 06:49:44;;;;;;;7.57;2.13;;;10.20;97.20;;;;;;1721165;28;20600;-66
2023/03/09 06:50:36;;;;;;;7.57;2.13;;;10.30;97.20;;;;;;1720595;28;20586;-69
2023/03/09 06:51:27;;;;;;;5.35;1.80;;;10.30;97.20;;;;;;1721282;28;20216;-67
2023/03/09 06:52:18;;;;;;;6.00;1.90;;;10.30;97.20;;;;;;1721293;28;20212;-67
2023/03/09 06:53:09;;;;;;;6.70;1.63;;;10.30;97.20;;;;;;1721021;28;20579;-68
2023/03/09 06:54:01;;;;;;;4.70;1.83;;;10.30;97.20;;;;;;1721107;28;20596;-67
2023/03/09 06:54:52;;;;;;;5.00;1.80;;;10.30;97.20;;;;;;1721133;28;20201;-68
2023/03/09 06:55:43;;;;;;;6.47;1.83;;;10.30;97.20;;;;;;1721102;28;20201;-68
2023/03/09 06:56:34;;;;;;;7.70;2.10;;;10.30;97.20;;;;;;1721188;28;20444;-67
2023/03/09 06:57:26;;;;;;;4.90;1.93;;;10.30;97.20;;;;;;1721162;28;20209;-68
2023/03/09 06:58:17;;;;;;;5.55;2.35;;;10.30;97.20;;;;;;1720805;28;20220;-68
2023/03/09 06:59:08;;;;;;;5.97;2.33;;;10.30;97.20;;;;;;1721176;28;20201;-68
2023/03/09 06:59:59;;;;;;;5.15;1.80;;;10.30;97.20;;;;;;1721050;28;20208;-68
2023/03/09 07:00:51;;;;;;;6.80;1.70;;;10.20;97.20;;;;;;1720771;28;20220;-68
2023/03/09 07:01:41;;;;;;;4.55;2.60;;;10.20;97.20;;;;;;1721136;28;20278;-68
2023/03/09 07:02:33;;;;;;;5.80;1.77;;;10.20;97.20;;;;;;1721142;28;20229;-68
2023/03/09 07:03:24;;;;;;;5.63;1.58;;;10.20;97.20;;;;;;1721060;28;20213;-67
2023/03/09 07:04:29;;;;;;;4.82;1.90;;;10.20;97.20;;;;;;1721163;28;20208;-68
2023/03/09 07:05:20;;;;;;;5.82;1.58;;;10.20;97.20;;;;;;1721075;28;20213;-68
2023/03/09 07:06:12;;;;;;;4.05;1.65;;;10.20;97.20;;;;;;1720955;28;20228;-69
2023/03/09 07:07:02;;;;;;;7.60;1.75;;;10.20;97.20;;;;;;1721065;28;20205;-67
2023/03/09 07:07:54;;;;;;;4.03;1.50;;;10.20;97.20;;;;;;1720969;28;20201;-68
2023/03/09 07:08:45;;;;;;;4.20;1.50;;;10.20;97.20;;;;;;1720675;28;20197;-68
2023/03/09 07:09:36;;;;;;;6.63;1.90;;;10.20;97.20;;;;;;1721151;28;20201;-67
2023/03/09 07:10:27;;;;;;;7.55;1.45;;;10.30;97.20;;;;;;1720932;28;20209;-67
2023/03/09 07:11:19;;;;;;;3.58;1.38;;;10.30;97.20;;;;;;1720720;28;20197;-67
2023/03/09 07:12:10;;;;;;;4.05;1.60;;;10.30;97.20;;;;;;1721089;28;20213;-67
2023/03/09 07:13:01;;;;;;;6.03;1.80;;;10.30;97.20;;;;;;1721024;28;20671;-67
2023/03/09 07:13:52;;;;;;;5.10;1.90;;;10.30;97.20;;;;;;1721073;28;20205;-66
2023/03/09 07:14:44;;;;;;;5.47;1.90;;;10.30;97.20;;;;;;1721020;28;20205;-67
2023/03/09 07:15:35;;;;;;;7.00;1.80;;;10.40;97.20;;;;;;1721101;28;20197;-67
2023/03/09 07:16:27;;;;;;;4.53;1.50;;;10.40;97.20;;;;;;1720967;28;20204;-67
2023/03/09 07:17:18;;;;;;;6.13;1.48;;;10.40;97.20;;;;;;1720915;28;20667;-67
2023/03/09 07:18:11;;;;;;;6.07;1.77;;;10.40;97.20;;;;;;1721032;28;20655;-67
2023/03/09 07:19:01;;;;;;;5.40;1.70;;;10.40;97.20;;;;;;1720606;28;20452;-67
2023/03/09 07:19:56;;;;;;;4.47;1.30;;;10.40;97.20;;;;;;1720947;28;20201;-67
2023/03/09 07:20:47;;;;;;;5.53;1.45;;;10.50;97.20;;;;;;1720616;28;20316;-67
2023/03/09 07:21:39;;;;;;;4.50;1.77;;;10.50;97.20;;;;;;1720956;28;20815;-67
2023/03/09 07:22:29;;;;;;;7.05;1.75;;;10.60;97.20;;;;;;1720784;28;20209;-67
2023/03/09 07:23:21;;;;;;;6.07;2.10;;;10.70;97.20;;;;;;1720778;28;20201;-68
2023/03/09 07:24:12;;;;;;;5.85;1.52;;;10.80;97.20;;;;;;1720978;28;20201;-67
2023/03/09 07:25:04;;;;;;;4.00;1.47;;;10.90;97.20;;;;;;1720996;28;20216;-67
2023/03/09 07:25:58;;;;;;;4.60;1.92;;;10.90;97.20;;;;;;1720823;28;20444;-67
2023/03/09 07:26:50;;;;;;;6.15;1.95;;;11.00;97.20;;;;;;1720910;28;20714;-67
2023/03/09 07:27:41;;;;;;;3.55;1.50;;;11.00;97.20;;;;;;1720509;28;20231;-67
2023/03/09 07:28:33;;;;;;;2.97;1.17;;;11.00;97.20;;;;;;1720020;28;20589;-67
2023/03/09 07:29:24;;;;;;;4.90;1.50;;;11.00;97.20;;;;;;1720900;28;20208;-68
2023/03/09 07:30:16;;;;;;;5.67;1.60;;;11.10;97.20;;;;;;1720808;28;20205;-67
2023/03/09 07:31:08;;;;;;;4.97;1.63;;;11.10;97.20;;;;;;1720606;28;20215;-67
2023/03/09 07:32:02;;;;;;;5.47;2.33;;;11.10;97.20;;;;;;1720923;28;20205;-68
2023/03/09 07:32:52;;;;;;;4.32;1.58;;;11.20;97.20;;;;;;1720879;28;20209;-67
2023/03/09 07:33:44;;;;;;;4.30;1.40;;;11.20;97.20;;;;;;1720347;28;20764;-68
2023/03/09 07:34:35;;;;;;;4.88;1.63;;;11.30;97.20;;;;;;1720385;28;20208;-67
2023/03/09 07:35:28;;;;;;;6.20;1.57;;;11.30;97.20;;;;;;1720225;28;20242;-67
2023/03/09 07:36:18;;;;;;;4.25;1.58;;;11.40;97.20;;;;;;1720206;28;20212;-67
2023/03/09 07:37:10;;;;;;;5.23;1.70;;;11.50;97.20;;;;;;1720172;28;20280;-67
2023/03/09 07:38:01;;;;;;;5.00;1.73;;;11.60;97.20;;;;;;1720897;28;20205;-67
2023/03/09 07:38:53;;;;;;;4.57;2.10;;;11.70;97.20;;;;;;1720616;28;20201;-67
2023/03/09 07:39:43;;;;;;;5.35;1.70;;;11.80;97.20;;;;;;1720619;28;20201;-67
2023/03/09 07:40:35;;;;;;;6.03;1.97;;;11.80;97.20;;;;;;1720618;28;20213;-68
2023/03/09 07:41:26;;;;;;;3.65;1.13;;;11.80;97.20;;;;;;1720290;28;20209;-67
2023/03/09 07:42:18;;;;;;;9.03;2.27;;;11.80;97.20;;;;;;1720476;28;20284;-68
2023/03/09 07:43:10;;;;;;;7.97;2.17;;;11.80;97.20;;;;;;1720688;28;20232;-67
2023/03/09 07:44:02;;;;;;;6.47;1.73;;;11.80;97.20;;;;;;1720945;28;20212;-67
2023/03/09 07:44:53;;;;;;;6.22;2.03;;;11.80;97.20;;;;;;1720787;28;20205;-67
2023/03/09 07:45:44;;;;;;;5.83;1.67;;;11.80;97.20;;;;;;1720804;28;20201;-67
2023/03/09 07:46:35;;;;;;;5.03;1.52;;;11.90;97.20;;;;;;1720748;28;20221;-67
2023/03/09 07:47:27;;;;;;;6.97;1.27;;;11.90;97.20;;;;;;1720807;28;20283;-67
2023/03/09 07:48:18;;;;;;;4.68;1.42;;;11.90;97.20;;;;;;1720677;28;20339;-68
2023/03/09 07:49:10;;;;;;;3.90;1.90;;;11.90;97.20;;;;;;1719542;28;20194;-67
2023/03/09 07:50:01;;;;;;;4.40;1.55;;;11.90;97.20;;;;;;1720878;28;20590;-67
2023/03/09 07:51:01;;;;;;;3.95;1.30;;;12.00;97.20;;;;;;1720054;28;20274;-67
2023/03/09 07:51:51;;;;;;;6.60;1.73;;;12.00;97.20;;;;;;1720925;28;20576;-67
2023/03/09 07:52:44;;;;;;;8.97;1.77;;;12.10;97.20;;;;;;1720672;28;20573;-67
2023/03/09 07:53:36;;;;;;;5.35;1.95;;;12.10;97.20;;;;;;1720783;28;20201;-67
2023/03/09 07:54:27;;;;;;;4.25;1.50;;;12.10;97.20;;;;;;1720824;28;20348;-67
2023/03/09 07:55:22;;;;;;;6.00;1.65;;;12.20;97.20;;;;;;1720798;28;20208;-68
2023/03/09 07:56:13;;;;;;;4.38;1.40;;;12.20;97.20;;;;;;1720811;28;20292;-68
2023/03/09 07:57:04;;;;;;;6.10;2.13;;;12.30;97.20;;;;;;1720730;28;20208;-68
2023/03/09 07:57:56;;;;;;;7.00;1.93;;;12.30;97.20;;;;;;1720741;28;20201;-67
2023/03/09 07:58:47;;;;;;;5.38;1.52;;;12.30;97.20;;;;;;1720481;28;20456;-67
2023/03/09 07:59:38;;;;;;;5.10;1.60;;;12.40;97.20;;;;;;1720794;28;20236;-67
2023/03/09 08:00:30;;;;;;;4.88;1.45;;;12.50;97.20;;;;;;1720461;28;20332;-68
2023/03/09 08:01:21;;;;;;;6.53;1.80;;;12.60;97.20;;;;;;1720382;28;20197;-68
2023/03/09 08:02:12;;;;;;;6.47;2.03;;;12.60;97.20;;;;;;1720735;28;20239;-68
2023/03/09 08:03:04;;;;;;;4.70;1.57;;;12.70;97.20;;;;;;1720663;28;20201;-67
2023/03/09 08:03:55;;;;;;;3.03;1.20;;;12.80;97.20;;;;;;1720827;28;20632;-67
2023/03/09 08:04:46;;;;;;;5.53;1.73;;;13.00;97.20;;;;;;1720731;28;20213;-68
2023/03/09 08:05:40;;;;;;;4.90;2.00;;;13.10;97.20;;;;;;1720973;28;20268;-68
2023/03/09 08:06:33;;;;;;;4.13;1.40;;;13.20;97.20;;;;;;1720659;28;20515;-67
2023/03/09 08:07:25;;;;;;;3.22;1.80;;;13.30;97.20;;;;;;1720717;28;20205;-67
2023/03/09 08:08:16;;;;;;;4.88;1.60;;;13.40;97.20;;;;;;1720853;28;20671;-67
2023/03/09 08:09:12;;;;;;;3.50;1.17;;;13.40;97.20;;;;;;1720364;28;20538;-68
2023/03/09 08:10:05;;;;;;;2.85;1.40;;;13.50;97.20;;;;;;1720824;28;20228;-68
2023/03/09 08:10:57;;;;;;;2.13;1.20;;;13.50;97.20;;;;;;1720530;28;20217;-68
2023/03/09 08:11:48;;;;;;;7.60;1.58;;;13.40;97.20;;;;;;1720746;28;20263;-68
2023/03/09 08:12:40;;;;;;;2.85;1.20;;;13.40;97.20;;;;;;1720696;28;20194;-68
2023/03/09 08:13:31;;;;;;;3.30;1.20;;;13.30;97.20;;;;;;1720450;28;20204;-68
2023/03/09 08:14:23;;;;;;;5.13;1.63;;;13.30;97.20;;;;;;1720601;28;20200;-68
2023/03/09 08:15:14;;;;;;;3.65;1.00;;;13.20;97.20;;;;;;1720698;28;20342;-67
2023/03/09 08:16:09;;;;;;;4.28;1.27;;;13.20;97.20;;;;;;1720715;28;20205;-68
2023/03/09 08:17:01;;;;;;;3.63;1.10;;;13.20;97.20;;;;;;1720687;28;20205;-67
2023/03/09 08:17:54;;;;;;;3.42;1.00;;;13.20;97.20;;;;;;1720638;28;20252;-68
2023/03/09 08:18:45;;;;;;;5.65;1.52;;;13.30;97.20;;;;;;1720381;28;20771;-68
2023/03/09 08:19:36;;;;;;;4.97;1.30;;;13.40;97.20;;;;;;1720673;28;20341;-68
2023/03/09 08:20:27;;;;;;;4.85;1.88;;;13.50;97.20;;;;;;1720544;28;20451;-68
2023/03/09 08:21:19;;;;;;;3.23;1.10;;;13.50;97.20;;;;;;1720415;28;20207;-68
2023/03/09 08:22:11;;;;;;;3.53;1.08;;;13.70;97.20;;;;;;1720850;28;20213;-68
2023/03/09 08:23:03;;;;;;;4.45;1.98;;;13.80;97.20;;;;;;1720687;28;20278;-67
2023/03/09 08:23:54;;;;;;;5.97;2.10;;;13.90;97.20;;;;;;1720684;28;20266;-68
2023/03/09 08:24:46;;;;;;;3.20;1.10;;;14.00;97.20;;;;;;1720626;28;20201;-68
2023/03/09 08:25:37;;;;;;;2.47;1.15;;;14.20;97.20;;;;;;1720670;28;20205;-68
2023/03/09 08:26:30;;;;;;;3.25;1.48;;;14.30;97.20;;;;;;1720582;28;20197;-68
2023/03/09 08:27:20;;;;;;;4.10;1.25;;;14.40;97.20;;;;;;1720595;28;20668;-68
2023/03/09 08:28:13;;;;;;;2.40;1.00;;;14.40;97.20;;;;;;1720654;28;20655;-67
2023/03/09 08:29:04;;;;;;;2.55;1.40;;;14.40;97.20;;;;;;1720449;28;20639;-68
2023/03/09 08:29:56;;;;;;;3.58;1.25;;;14.40;97.20;;;;;;1720725;28;20197;-68
2023/03/09 08:30:48;;;;;;;3.40;0.98;;;14.40;97.20;;;;;;1720195;28;20275;-68
2023/03/09 08:31:40;;;;;;;6.65;1.70;;;14.40;97.20;;;;;;1720643;28;20201;-68
2023/03/09 08:32:31;;;;;;;3.55;1.20;;;14.40;97.20;;;;;;1720614;28;20212;-68
2023/03/09 08:33:23;;;;;;;2.37;0.97;;;14.40;97.20;;;;;;1720655;28;20206;-68
2023/03/09 08:34:14;;;;;;;5.40;1.58;;;14.40;97.20;;;;;;1720682;28;20208;-68
2023/03/09 08:35:07;;;;;;;6.95;2.45;;;14.40;97.20;;;;;;1720642;28;20197;-68
2023/03/09 08:35:57;;;;;;;4.70;1.45;;;14.50;97.20;;;;;;1720622;28;20213;-68
2023/03/09 08:36:49;;;;;;;4.30;1.57;;;14.60;97.20;;;;;;1720563;28;20190;-68
2023/03/09 08:37:41;;;;;;;2.83;1.05;;;14.80;97.20;;;;;;1720641;28;20443;-68
2023/03/09 08:38:33;;;;;;;3.97;1.35;;;14.80;97.20;;;;;;1720287;28;20224;-68
2023/03/09 08:39:24;;;;;;;4.18;1.27;;;14.90;97.20;;;;;;1720590;28;20248;-68
2023/03/09 08:40:17;;;;;;;3.30;1.30;;;14.80;97.20;;;;;;1720597;28;20197;-68
2023/03/09 08:41:07;;;;;;;4.32;1.23;;;14.80;97.20;;;;;;1720431;28;20205;-68
2023/03/09 08:41:59;;;;;;;3.53;1.10;;;14.70;97.20;;;;;;1720637;28;20201;-68
2023/03/09 08:42:50;;;;;;;3.30;1.20;;;14.60;97.20;;;;;;1720509;28;20214;-68
2023/03/09 08:43:41;;;;;;;2.60;1.30;;;14.60;97.20;;;;;;1720503;28;20208;-68
2023/03/09 08:44:32;;;;;;;5.10;1.00;;;14.40;97.20;;;;;;1720531;28;20212;-68
2023/03/09 08:45:24;;;;;;;2.20;1.00;;;14.40;97.20;;;;;;1720619;28;20201;-68
2023/03/09 08:46:15;;;;;;;2.15;0.90;;;14.30;97.20;;;;;;1720666;28;20455;-68
2023/03/09 08:47:07;;;;;;;3.10;1.50;;;14.20;97.20;;;;;;1720539;28;20324;-68
2023/03/09 08:47:57;;;;;;;3.75;1.15;;;14.10;97.20;;;;;;1720563;28;20459;-68
2023/03/09 08:48:49;;;;;;;10.17;1.60;;;14.10;97.20;;;;;;1720307;28;20212;-68
2023/03/09 08:49:41;;;;;;;3.00;1.10;;;14.10;97.20;;;;;;1720676;28;20205;-67
2023/03/09 08:50:33;;;;;;;4.03;1.05;;;14.20;97.20;;;;;;1720504;28;20636;-68
2023/03/09 08:51:24;;;;;;;2.17;1.20;;;14.20;97.20;;;;;;1720375;28;20569;-68
2023/03/09 08:52:16;;;;;;;5.47;1.20;;;14.30;97.20;;;;;;1721975;28;20208;-67
2023/03/09 08:53:08;;;;;;;2.83;1.20;;;14.40;97.20;;;;;;1721753;28;20200;-68
2023/03/09 08:54:00;;;;;;;3.47;1.15;;;14.60;97.20;;;;;;1721907;28;20209;-68
2023/03/09 08:54:51;;;;;;;3.30;1.25;;;14.70;97.20;;;;;;1721959;28;20690;-68
2023/03/09 08:55:42;;;;;;;4.83;1.37;;;14.90;97.20;;;;;;1721861;28;20552;-67
2023/03/09 08:56:33;;;;;;;7.57;1.35;;;15.00;97.20;;;;;;1721932;28;20953;-68
2023/03/09 08:57:25;;;;;;;3.80;1.10;;;15.10;97.20;;;;;;1721884;28;20566;-68
2023/03/09 08:58:16;;;;;;;5.13;1.10;;;15.20;97.20;;;;;;1721866;28;20201;-68
2023/03/09 08:59:07;;;;;;;4.50;1.43;;;15.30;97.20;;;;;;1721582;28;20196;-68
2023/03/09 08:59:58;;;;;;;2.05;1.15;;;15.40;97.20;;;;;;1721887;28;20498;-68
2023/03/09 09:00:50;;;;;;;3.00;1.00;;;15.40;97.20;;;;;;1721489;28;20221;-68
2023/03/09 09:01:41;;;;;;;2.75;0.90;;;15.30;97.20;;;;;;1721800;28;20205;-69
2023/03/09 09:02:32;;;;;;;2.40;1.10;;;15.30;97.20;;;;;;1721780;28;20197;-68
2023/03/09 09:03:23;;;;;;;3.20;1.50;;;15.30;97.20;;;;;;1721857;28;20248;-68
2023/03/09 09:04:15;;;;;;;3.20;1.17;;;15.40;97.20;;;;;;1721851;28;20232;-68
2023/03/09 09:05:07;;;;;;;1.48;0.80;;;15.50;97.20;;;;;;1721920;28;20595;-68
2023/03/09 09:06:04;;;;;;;4.07;1.00;;;15.60;97.20;;;;;;1721751;28;20666;-68
2023/03/09 09:06:55;;;;;;;3.40;1.13;;;15.60;97.20;;;;;;1721821;28;20233;-68
2023/03/09 09:07:47;;;;;;;2.60;0.90;;;15.80;97.20;;;;;;1721799;28;20205;-68
2023/03/09 09:08:39;;;;;;;1.60;1.00;;;15.90;97.20;;;;;;1721495;28;20452;-68
2023/03/09 09:09:31;;;;;;;3.65;1.33;;;15.90;97.20;;;;;;1721720;28;20236;-68
2023/03/09 09:10:22;;;;;;;3.08;1.20;;;15.90;97.20;;;;;;1721754;28;20682;-68
2023/03/09 09:11:16;;;;;;;1.90;1.30;;;15.80;97.20;;;;;;1721618;28;20579;-68
2023/03/09 09:12:08;;;;;;;7.10;1.50;;;15.70;97.20;;;;;;1721902;28;20445;-68
2023/03/09 09:12:59;;;;;;;5.38;1.50;;;15.50;97.20;;;;;;1721668;28;20205;-68
2023/03/09 09:13:51;;;;;;;3.15;1.40;;;15.30;97.20;;;;;;1721775;28;20212;-68
2023/03/09 09:14:43;;;;;;;3.97;1.08;;;15.20;97.20;;;;;;1721748;28;20216;-69
2023/03/09 09:15:34;;;;;;;2.42;1.17;;;15.00;97.20;;;;;;1721768;28;20713;-68
2023/03/09 09:16:27;;;;;;;4.87;1.27;;;14.90;97.20;;;;;;1721775;28;20565;-68
2023/03/09 09:17:18;;;;;;;2.88;1.20;;;14.80;97.20;;;;;;1721762;28;20197;-68
2023/03/09 09:18:10;;;;;;;4.73;1.23;;;14.60;97.20;;;;;;1721787;28;20205;-68
2023/03/09 09:19:02;;;;;;;2.78;1.17;;;14.50;97.20;;;;;;1721468;28;20943;-68
2023/03/09 09:19:53;;;;;;;2.70;1.00;;;14.30;97.20;;;;;;1721658;28;20201;-68
2023/03/09 09:20:44;;;;;;;2.67;1.30;;;14.10;97.20;;;;;;1721152;28;20224;-68
2023/03/09 09:21:37;;;;;;;4.37;1.37;;;14.00;97.20;;;;;;1721735;28;20208;-68
2023/03/09 09:22:28;;;;;;;4.13;1.40;;;13.80;97.20;;;;;;1721720;28;20259;-68
2023/03/09 09:23:20;;;;;;;4.50;1.23;;;13.70;97.20;;;;;;1721716;28;20674;-68
2023/03/09 09:24:12;;;;;;;3.35;1.00;;;13.50;97.20;;;;;;1721756;28;20201;-68
2023/03/09 09:25:08;;;;;;;6.38;1.70;;;13.40;97.20;;;;;;1721702;28;20201;-68
2023/03/09 09:25:59;;;;;;;3.75;1.58;;;13.30;97.20;;;;;;1721762;28;20300;-68
2023/03/09 09:26:54;;;;;;;4.40;1.25;;;13.20;97.20;;;;;;1721580;28;20582;-68
2023/03/09 09:27:48;;;;;;;2.22;1.00;;;13.10;97.20;;;;;;1721642;28;20209;-68
2023/03/09 09:28:40;;;;;;;2.05;1.00;;;13.10;97.20;;;;;;1721616;28;20205;-68
2023/03/09 09:29:31;;;;;;;2.88;1.05;;;13.00;97.20;;;;;;1714949;28;20229;-68
2023/03/09 09:30:23;;;;;;;3.70;1.30;;;13.00;97.20;;;;;;1714696;28;20285;-68
2023/03/09 09:31:19;;;;;;;3.50;1.33;;;12.90;97.20;;;;;;1714830;28;20206;-68
2023/03/09 09:32:11;;;;;;;3.88;1.58;;;13.00;97.20;;;;;;1715105;28;20568;-68
2023/03/09 09:33:04;;;;;;;2.50;1.00;;;13.10;97.20;;;;;;1714872;28;20231;-68
2023/03/09 09:33:57;;;;;;;3.30;1.17;;;13.30;97.20;;;;;;1714967;28;20210;-68
2023/03/09 09:34:48;;;;;;;3.22;1.02;;;13.60;97.20;;;;;;1714962;28;20267;-68
2023/03/09 09:35:40;;;;;;;3.50;1.20;;;13.80;97.20;;;;;;1714838;28;20233;-68
2023/03/09 09:36:33;;;;;;;2.28;1.00;;;14.00;97.20;;;;;;1714971;28;20441;-68
2023/03/09 09:37:28;;;;;;;1.95;0.88;;;14.00;97.20;;;;;;1714897;28;20225;-68
2023/03/09 09:38:18;;;;;;;4.97;1.20;;;14.00;97.20;;;;;;1714970;28;20691;-68
2023/03/09 09:39:13;;;;;;;3.83;1.10;;;14.00;97.20;;;;;;1718926;28;20678;-68
2023/03/09 09:40:05;;;;;;;2.65;1.20;;;14.10;97.20;;;;;;1721583;28;20214;-68
2023/03/09 09:41:00;;;;;;;3.05;1.40;;;14.20;97.20;;;;;;1721377;28;20225;-68
2023/03/09 09:41:55;;;;;;;5.18;1.30;;;14.40;97.20;;;;;;1721674;28;20205;-68
2023/03/09 09:42:48;;;;;;;2.33;0.85;;;14.40;97.20;;;;;;1721491;28;20284;-68
2023/03/09 09:43:40;;;;;;;2.20;1.10;;;14.50;97.20;;;;;;1721503;28;20201;-68
2023/03/09 09:44:36;;;;;;;2.35;1.10;;;14.50;97.20;;;;;;1721659;28;20197;-68
2023/03/09 09:45:32;;;;;;;1.40;0.90;;;14.50;97.20;;;;;;1721586;28;20690;-68
2023/03/09 09:46:24;;;;;;;2.55;1.27;;;14.50;97.20;;;;;;1721674;28;20205;-68
2023/03/09 09:47:19;;;;;;;3.20;1.00;;;14.60;97.20;;;;;;1721558;28;20233;-67
2023/03/09 09:48:15;;;;;;;2.10;0.93;;;14.70;97.20;;;;;;1721483;28;20218;-68
2023/03/09 09:49:11;;;;;;;3.58;1.13;;;14.80;97.20;;;;;;1721267;28;20808;-67
2023/03/09 09:50:03;;;;;;;2.90;1.00;;;14.90;97.20;;;;;;1721323;28;20197;-67
2023/03/09 09:51:09;;;;;;;4.05;1.08;;;14.80;97.20;;;;;;1721287;28;20225;-67
2023/03/09 09:52:12;;;;;;;2.25;0.80;;;14.70;97.20;;;;;;1721674;28;20680;-67
2023/03/09 09:53:11;;;;;;;1.85;0.93;;;14.60;97.20;;;;;;1721472;28;20205;-68
2023/03/09 09:54:13;;;;;;;2.20;1.10;;;14.40;97.20;;;;;;1721548;28;20205;-67
2023/03/09 09:55:15;;;;;;;2.47;1.02;;;14.30;97.20;;;;;;1721567;28;20233;-68
2023/03/09 09:56:12;;;;;;;6.43;1.40;;;14.10;97.20;;;;;;1721505;28;20217;-68
2023/03/09 09:57:08;;;;;;;5.55;1.00;;;14.00;97.20;;;;;;1721552;28;20205;-68
2023/03/09 09:58:06;;;;;;;2.15;1.00;;;13.90;97.20;;;;;;1721452;28;20201;-68
2023/03/09 09:59:01;;;;;;;2.95;1.02;;;13.90;97.20;;;;;;1721318;28;20209;-68
2023/03/09 10:00:02;;;;;;;4.32;1.33;;;13.90;97.20;;;;;;1721575;28;20232;-68
2023/03/09 10:00:54;;;;;;;2.78;1.00;;;14.00;97.20;;;;;;1721158;28;20582;-68
2023/03/09 10:01:51;;;;;;;2.65;1.15;;;14.10;97.20;;;;;;1721432;28;20197;-68
2023/03/09 10:03:07;;;;;;;3.55;0.90;;;14.10;97.20;;;;;;1721341;28;20252;-68
2023/03/09 10:04:02;;;;;;;2.85;0.98;;;14.10;97.20;;;;;;1721633;28;20208;-68
2023/03/09 10:05:00;;;;;;;2.03;0.82;;;14.20;97.20;;;;;;1721351;28;20201;-68
2023/03/09 10:05:55;;;;;;;2.75;1.00;;;14.20;97.20;;;;;;1721635;28;20209;-68
2023/03/09 10:06:49;;;;;;;2.17;0.80;;;14.10;97.20;;;;;;1721385;28;20216;-68
2023/03/09 10:07:40;;;;;;;2.30;1.10;;;14.20;97.20;;;;;;1721358;28;20221;-68
2023/03/09 10:08:39;;;;;;;2.20;1.15;;;14.40;97.20;;;;;;1721439;28;20200;-68
2023/03/09 10:09:33;;;;;;;4.15;0.88;;;15.30;97.20;;;;;;1721237;28;20678;-68
2023/03/09 10:10:32;;;;;;;4.43;1.10;;;16.00;97.20;;;;;;1721351;28;20255;-68
2023/03/09 10:11:25;;;;;;;2.15;0.82;;;16.40;97.20;;;;;;1720579;28;20209;-68
2023/03/09 10:12:17;;;;;;;1.88;0.80;;;16.60;97.20;;;;;;1721499;28;20204;-67
2023/03/09 10:13:14;;;;;;;1.52;0.80;;;16.50;97.20;;;;;;1721358;28;20247;-68
2023/03/09 10:14:08;;;;;;;3.00;1.13;;;16.30;97.20;;;;;;1721439;28;20201;-68
2023/03/09 10:15:04;;;;;;;1.50;0.80;;;16.10;97.20;;;;;;1721415;28;20205;-68
2023/03/09 10:15:58;;;;;;;2.22;1.05;;;15.70;97.20;;;;;;1721545;28;20288;-68
2023/03/09 10:16:54;;;;;;;3.05;0.90;;;15.40;97.20;;;;;;1721427;28;20209;-68
2023/03/09 10:17:49;;;;;;;3.97;1.27;;;15.20;97.20;;;;;;1721378;28;20201;-68
2023/03/09 10:18:44;;;;;;;1.80;0.85;;;15.00;97.20;;;;;;1721442;28;20220;-68
2023/03/09 10:19:38;;;;;;;2.78;1.00;;;14.80;97.20;;;;;;1721032;28;20232;-68
2023/03/09 10:20:35;;;;;;;4.75;1.08;;;14.60;97.20;;;;;;1721215;28;20205;-68
2023/03/09 10:21:35;;;;;;;2.08;1.00;;;14.50;97.20;;;;;;1721364;28;20647;-68
2023/03/09 10:22:27;;;;;;;5.20;1.20;;;14.40;97.20;;;;;;1721352;28;20201;-68
2023/03/09 10:23:25;;;;;;;1.88;0.80;;;14.30;97.20;;;;;;1721427;28;20209;-68
2023/03/09 10:24:21;;;;;;;3.05;1.10;;;14.30;97.20;;;;;;1721426;28;20205;-68
2023/03/09 10:25:17;;;;;;;2.97;1.50;;;14.20;97.20;;;;;;1721388;28;20677;-67
2023/03/09 10:26:20;;;;;;;2.25;0.93;;;14.20;97.20;;;;;;1721387;28;20209;-68
2023/03/09 10:27:20;;;;;;;2.22;0.98;;;14.30;97.20;;;;;;1721361;28;20212;-68
2023/03/09 10:28:16;;;;;;;4.22;1.20;;;14.40;97.20;;;;;;1721344;28;20565;-68
2023/03/09 10:29:17;;;;;;;3.15;1.20;;;14.40;97.20;;;;;;1721145;28;20259;-68
2023/03/09 10:30:18;;;;;;;2.63;0.88;;;14.60;97.20;;;;;;1721338;28;20289;-68
2023/03/09 10:31:14;;;;;;;2.38;0.90;;;14.90;97.20;;;;;;1721127;28;20228;-68
2023/03/09 10:32:13;;;;;;;1.90;1.13;;;15.20;97.20;;;;;;1721276;28;20663;-67
2023/03/09 10:33:11;;;;;;;4.63;1.80;;;15.60;97.20;;;;;;1721165;28;20582;-68
2023/03/09 10:34:12;;;;;;;3.40;1.20;;;15.90;97.20;;;;;;1721320;28;20206;-67
2023/03/09 10:35:16;;;;;;;2.60;1.05;;;16.30;97.20;;;;;;1721318;28;20209;-68
2023/03/09 10:36:11;;;;;;;2.85;0.90;;;16.80;97.20;;;;;;1721293;28;20204;-67
2023/03/09 10:37:08;;;;;;;2.90;1.20;;;17.40;97.20;;;;;;1721152;28;20206;-67